sensor_id;sensor_type;location;lat;lon;timestamp;pressure;altitude;pressure_sealevel;temperature;humidity
63552;BME280;49698;48.072;7.800;2022-07-04T00:00:18;99566.06;;;21.95;55.44
63552;BME280;49698;48.072;7.800;2022-07-04T00:02:46;99565.97;;;21.91;55.44
63552;BME280;49698;48.072;7.800;2022-07-04T00:05:14;99563.53;;;21.86;55.43
63552;BME280;49698;48.072;7.800;2022-07-04T00:07:43;99582.34;;;21.88;55.15
63552;BME280;49698;48.072;7.800;2022-07-04T00:10:11;99572.09;;;21.85;55.07
63552;BME280;49698;48.072;7.800;2022-07-04T00:12:39;99564.59;;;21.82;55.13
63552;BME280;49698;48.072;7.800;2022-07-04T00:15:09;99564.13;;;21.80;55.06
63552;BME280;49698;48.072;7.800;2022-07-04T00:17:37;99569.56;;;21.76;55.16
63552;BME280;49698;48.072;7.800;2022-07-04T00:20:06;99565.56;;;21.73;55.10
63552;BME280;49698;48.072;7.800;2022-07-04T00:22:34;99566.72;;;21.72;55.08
63552;BME280;49698;48.072;7.800;2022-07-04T00:25:01;99562.38;;;21.71;55.13
63552;BME280;49698;48.072;7.800;2022-07-04T00:27:29;99569.69;;;21.67;55.22
63552;BME280;49698;48.072;7.800;2022-07-04T00:29:57;99563.81;;;21.65;55.17
63552;BME280;49698;48.072;7.800;2022-07-04T00:32:26;99562.19;;;21.64;55.14
63552;BME280;49698;48.072;7.800;2022-07-04T00:34:54;99562.56;;;21.63;55.21
63552;BME280;49698;48.072;7.800;2022-07-04T00:37:22;99569.97;;;21.62;55.17
63552;BME280;49698;48.072;7.800;2022-07-04T00:39:50;99584.03;;;21.61;55.02
63552;BME280;49698;48.072;7.800;2022-07-04T00:42:17;99597.34;;;21.62;55.07
63552;BME280;49698;48.072;7.800;2022-07-04T00:44:45;99591.84;;;21.62;55.04
63552;BME280;49698;48.072;7.800;2022-07-04T00:47:13;99594.13;;;21.60;55.13
63552;BME280;49698;48.072;7.800;2022-07-04T00:49:42;99599.59;;;21.60;55.14
63552;BME280;49698;48.072;7.800;2022-07-04T00:52:10;99596.44;;;21.58;55.30
63552;BME280;49698;48.072;7.800;2022-07-04T00:54:39;99600.66;;;21.56;55.21
63552;BME280;49698;48.072;7.800;2022-07-04T00:57:07;99600.25;;;21.54;55.26
63552;BME280;49698;48.072;7.800;2022-07-04T00:59:35;99603.31;;;21.52;55.43
63552;BME280;49698;48.072;7.800;2022-07-04T01:02:03;99606.41;;;21.51;55.40
63552;BME280;49698;48.072;7.800;2022-07-04T01:04:30;99598.56;;;21.49;55.30
63552;BME280;49698;48.072;7.800;2022-07-04T01:06:59;99608.69;;;21.48;55.38
63552;BME280;49698;48.072;7.800;2022-07-04T01:09:27;99618.84;;;21.48;55.28
63552;BME280;49698;48.072;7.800;2022-07-04T01:11:55;99613.72;;;21.46;55.38
63552;BME280;49698;48.072;7.800;2022-07-04T01:14:23;99614.06;;;21.45;55.51
63552;BME280;49698;48.072;7.800;2022-07-04T01:16:51;99610.91;;;21.43;55.51
63552;BME280;49698;48.072;7.800;2022-07-04T01:19:19;99613.16;;;21.41;55.75
63552;BME280;49698;48.072;7.800;2022-07-04T01:21:48;99607.28;;;21.39;55.83
63552;BME280;49698;48.072;7.800;2022-07-04T01:24:16;99605.22;;;21.36;55.94
63552;BME280;49698;48.072;7.800;2022-07-04T01:26:44;99601.94;;;21.30;55.90
63552;BME280;49698;48.072;7.800;2022-07-04T01:29:12;99613.56;;;21.27;56.06
63552;BME280;49698;48.072;7.800;2022-07-04T01:31:39;99615.03;;;21.24;56.22
63552;BME280;49698;48.072;7.800;2022-07-04T01:34:07;99615.75;;;21.21;56.23
63552;BME280;49698;48.072;7.800;2022-07-04T01:36:44;99623.50;;;21.19;56.13
63552;BME280;49698;48.072;7.800;2022-07-04T01:39:13;99625.34;;;21.15;56.28
63552;BME280;49698;48.072;7.800;2022-07-04T01:41:41;99624.88;;;21.13;56.38
63552;BME280;49698;48.072;7.800;2022-07-04T01:44:09;99627.19;;;21.11;56.21
63552;BME280;49698;48.072;7.800;2022-07-04T01:46:37;99608.38;;;21.10;56.39
63552;BME280;49698;48.072;7.800;2022-07-04T01:49:04;99620.47;;;21.09;56.16
63552;BME280;49698;48.072;7.800;2022-07-04T01:51:32;99613.75;;;21.06;56.21
63552;BME280;49698;48.072;7.800;2022-07-04T01:54:00;99606.28;;;21.03;55.95
63552;BME280;49698;48.072;7.800;2022-07-04T01:56:29;99614.78;;;21.01;55.80
63552;BME280;49698;48.072;7.800;2022-07-04T01:58:57;99617.44;;;20.98;55.72
63552;BME280;49698;48.072;7.800;2022-07-04T02:01:25;99620.88;;;20.95;55.71
63552;BME280;49698;48.072;7.800;2022-07-04T02:03:58;99625.88;;;20.93;55.75
63552;BME280;49698;48.072;7.800;2022-07-04T02:06:26;99626.25;;;20.91;55.64
63552;BME280;49698;48.072;7.800;2022-07-04T02:08:54;99627.25;;;20.87;55.75
63552;BME280;49698;48.072;7.800;2022-07-04T02:11:41;99633.44;;;20.84;55.70
63552;BME280;49698;48.072;7.800;2022-07-04T02:14:27;99639.56;;;20.81;55.90
63552;BME280;49698;48.072;7.800;2022-07-04T02:16:55;99646.88;;;20.76;55.89
63552;BME280;49698;48.072;7.800;2022-07-04T02:19:23;99654.16;;;20.72;55.94
63552;BME280;49698;48.072;7.800;2022-07-04T02:21:50;99651.75;;;20.71;55.99
63552;BME280;49698;48.072;7.800;2022-07-04T02:24:18;99661.47;;;20.68;56.07
63552;BME280;49698;48.072;7.800;2022-07-04T02:26:48;99659.41;;;20.65;56.26
63552;BME280;49698;48.072;7.800;2022-07-04T02:29:15;99670.69;;;20.64;56.06
63552;BME280;49698;48.072;7.800;2022-07-04T02:31:43;99662.38;;;20.60;56.04
63552;BME280;49698;48.072;7.800;2022-07-04T02:34:11;99668.16;;;20.59;56.02
63552;BME280;49698;48.072;7.800;2022-07-04T02:36:39;99673.53;;;20.55;56.47
63552;BME280;49698;48.072;7.800;2022-07-04T02:39:07;99667.63;;;20.53;56.35
63552;BME280;49698;48.072;7.800;2022-07-04T02:41:34;99670.34;;;20.53;56.35
63552;BME280;49698;48.072;7.800;2022-07-04T02:44:04;99660.53;;;20.52;56.38
63552;BME280;49698;48.072;7.800;2022-07-04T02:46:32;99657.38;;;20.50;56.69
63552;BME280;49698;48.072;7.800;2022-07-04T02:49:00;99652.56;;;20.47;56.94
63552;BME280;49698;48.072;7.800;2022-07-04T02:51:28;99654.16;;;20.48;56.85
63552;BME280;49698;48.072;7.800;2022-07-04T02:53:56;99645.53;;;20.46;57.22
63552;BME280;49698;48.072;7.800;2022-07-04T02:56:24;99659.06;;;20.42;57.26
63552;BME280;49698;48.072;7.800;2022-07-04T02:58:51;99651.22;;;20.41;57.43
63552;BME280;49698;48.072;7.800;2022-07-04T03:01:21;99648.38;;;20.37;57.60
63552;BME280;49698;48.072;7.800;2022-07-04T03:03:48;99668.47;;;20.33;57.78
63552;BME280;49698;48.072;7.800;2022-07-04T03:06:16;99664.84;;;20.28;57.50
63552;BME280;49698;48.072;7.800;2022-07-04T03:08:44;99664.41;;;20.26;57.60
63552;BME280;49698;48.072;7.800;2022-07-04T03:11:12;99660.09;;;20.25;57.81
63552;BME280;49698;48.072;7.800;2022-07-04T03:13:40;99667.47;;;20.25;58.00
63552;BME280;49698;48.072;7.800;2022-07-04T03:16:08;99665.09;;;20.23;57.92
63552;BME280;49698;48.072;7.800;2022-07-04T03:18:37;99663.50;;;20.22;58.19
63552;BME280;49698;48.072;7.800;2022-07-04T03:21:05;99653.03;;;20.24;58.08
63552;BME280;49698;48.072;7.800;2022-07-04T03:23:37;99656.44;;;20.21;58.32
63552;BME280;49698;48.072;7.800;2022-07-04T03:26:05;99662.59;;;20.18;58.33
63552;BME280;49698;48.072;7.800;2022-07-04T03:28:33;99663.25;;;20.15;58.22
63552;BME280;49698;48.072;7.800;2022-07-04T03:31:00;99662.78;;;20.13;58.52
63552;BME280;49698;48.072;7.800;2022-07-04T03:33:28;99661.56;;;20.11;58.38
63552;BME280;49698;48.072;7.800;2022-07-04T03:35:58;99653.69;;;20.09;58.50
63552;BME280;49698;48.072;7.800;2022-07-04T03:38:26;99650.06;;;20.05;58.69
63552;BME280;49698;48.072;7.800;2022-07-04T03:40:54;99646.41;;;20.01;58.92
63552;BME280;49698;48.072;7.800;2022-07-04T03:43:21;99643.91;;;19.96;59.51
63552;BME280;49698;48.072;7.800;2022-07-04T03:45:49;99644.59;;;19.93;59.33
63552;BME280;49698;48.072;7.800;2022-07-04T03:48:17;99636.63;;;19.88;59.39
63552;BME280;49698;48.072;7.800;2022-07-04T03:50:44;99640.03;;;19.85;59.42
63552;BME280;49698;48.072;7.800;2022-07-04T03:53:13;99636.50;;;19.84;59.46
63552;BME280;49698;48.072;7.800;2022-07-04T03:55:42;99641.50;;;19.82;59.65
63552;BME280;49698;48.072;7.800;2022-07-04T03:58:10;99639.47;;;19.79;59.68
63552;BME280;49698;48.072;7.800;2022-07-04T04:00:38;99644.09;;;19.78;59.27
63552;BME280;49698;48.072;7.800;2022-07-04T04:03:06;99645.25;;;19.77;59.63
63552;BME280;49698;48.072;7.800;2022-07-04T04:05:54;99641.72;;;19.77;59.58
63552;BME280;49698;48.072;7.800;2022-07-04T04:08:22;99639.34;;;19.75;59.67
63552;BME280;49698;48.072;7.800;2022-07-04T04:10:50;99656.38;;;19.72;59.77
63552;BME280;49698;48.072;7.800;2022-07-04T04:13:18;99664.91;;;19.71;59.87
63552;BME280;49698;48.072;7.800;2022-07-04T04:15:45;99664.44;;;19.69;59.82
63552;BME280;49698;48.072;7.800;2022-07-04T04:18:13;99661.59;;;19.65;60.06
63552;BME280;49698;48.072;7.800;2022-07-04T04:20:41;99673.94;;;19.63;60.05
63552;BME280;49698;48.072;7.800;2022-07-04T04:23:08;99677.81;;;19.62;60.24
63552;BME280;49698;48.072;7.800;2022-07-04T04:25:38;99681.66;;;19.61;60.22
63552;BME280;49698;48.072;7.800;2022-07-04T04:28:05;99675.41;;;19.60;60.32
63552;BME280;49698;48.072;7.800;2022-07-04T04:30:33;99681.97;;;19.59;60.43
63552;BME280;49698;48.072;7.800;2022-07-04T04:33:01;99686.97;;;19.57;60.13
63552;BME280;49698;48.072;7.800;2022-07-04T04:35:28;99689.72;;;19.57;60.19
63552;BME280;49698;48.072;7.800;2022-07-04T04:37:56;99690.84;;;19.56;60.34
63552;BME280;49698;48.072;7.800;2022-07-04T04:40:24;99692.44;;;19.57;60.52
63552;BME280;49698;48.072;7.800;2022-07-04T04:42:53;99688.91;;;19.57;60.54
63552;BME280;49698;48.072;7.800;2022-07-04T04:45:21;99699.16;;;19.60;60.23
63552;BME280;49698;48.072;7.800;2022-07-04T04:47:49;99710.84;;;19.60;60.41
63552;BME280;49698;48.072;7.800;2022-07-04T04:50:19;99731.06;;;19.59;60.58
63552;BME280;49698;48.072;7.800;2022-07-04T04:52:46;99745.38;;;19.56;60.68
63552;BME280;49698;48.072;7.800;2022-07-04T04:55:14;99749.22;;;19.55;60.72
63552;BME280;49698;48.072;7.800;2022-07-04T04:57:42;99773.31;;;19.53;60.68
63552;BME280;49698;48.072;7.800;2022-07-04T05:00:12;99776.03;;;19.53;60.83
63552;BME280;49698;48.072;7.800;2022-07-04T05:02:39;99785.50;;;19.55;60.96
63552;BME280;49698;48.072;7.800;2022-07-04T05:05:07;99779.69;;;19.57;60.78
63552;BME280;49698;48.072;7.800;2022-07-04T05:07:35;99764.59;;;19.60;61.00
63552;BME280;49698;48.072;7.800;2022-07-04T05:10:03;99755.28;;;19.61;60.70
63552;BME280;49698;48.072;7.800;2022-07-04T05:12:31;99753.84;;;19.63;60.89
63552;BME280;49698;48.072;7.800;2022-07-04T05:15:02;99751.13;;;19.63;61.04
63552;BME280;49698;48.072;7.800;2022-07-04T05:17:31;99753.84;;;19.63;61.02
63552;BME280;49698;48.072;7.800;2022-07-04T05:19:59;99752.72;;;19.64;60.82
63552;BME280;49698;48.072;7.800;2022-07-04T05:22:27;99755.88;;;19.66;61.10
63552;BME280;49698;48.072;7.800;2022-07-04T05:24:55;99740.78;;;19.69;60.96
63552;BME280;49698;48.072;7.800;2022-07-04T05:27:22;99737.72;;;19.70;61.06
63552;BME280;49698;48.072;7.800;2022-07-04T05:29:53;99731.94;;;19.72;61.25
63552;BME280;49698;48.072;7.800;2022-07-04T05:32:21;99717.31;;;19.76;61.04
63552;BME280;49698;48.072;7.800;2022-07-04T05:34:50;99709.56;;;19.78;61.02
63552;BME280;49698;48.072;7.800;2022-07-04T05:37:18;99709.69;;;19.82;60.89
63552;BME280;49698;48.072;7.800;2022-07-04T05:39:46;99707.09;;;19.86;60.91
63552;BME280;49698;48.072;7.800;2022-07-04T05:42:14;99695.84;;;19.87;61.35
63552;BME280;49698;48.072;7.800;2022-07-04T05:44:41;99694.38;;;19.90;61.04
63552;BME280;49698;48.072;7.800;2022-07-04T05:47:09;99682.66;;;19.89;61.27
63552;BME280;49698;48.072;7.800;2022-07-04T05:49:37;99674.16;;;19.91;61.68
63552;BME280;49698;48.072;7.800;2022-07-04T05:52:07;99668.00;;;19.94;61.27
63552;BME280;49698;48.072;7.800;2022-07-04T05:54:37;99659.63;;;19.99;61.23
63552;BME280;49698;48.072;7.800;2022-07-04T05:57:05;99659.38;;;20.04;61.13
63552;BME280;49698;48.072;7.800;2022-07-04T05:59:32;99660.28;;;20.08;61.17
63552;BME280;49698;48.072;7.800;2022-07-04T06:02:00;99653.81;;;20.13;60.88
63552;BME280;49698;48.072;7.800;2022-07-04T06:04:28;99657.44;;;20.17;61.10
63552;BME280;49698;48.072;7.800;2022-07-04T06:06:56;99671.69;;;20.22;60.88
63552;BME280;49698;48.072;7.800;2022-07-04T06:09:25;99676.13;;;20.27;60.79
63552;BME280;49698;48.072;7.800;2022-07-04T06:11:53;99673.50;;;20.31;60.81
63552;BME280;49698;48.072;7.800;2022-07-04T06:14:21;99672.47;;;20.35;60.72
63552;BME280;49698;48.072;7.800;2022-07-04T06:16:48;99676.34;;;20.34;60.87
63552;BME280;49698;48.072;7.800;2022-07-04T06:19:16;99679.88;;;20.35;61.07
63552;BME280;49698;48.072;7.800;2022-07-04T06:21:44;99671.00;;;20.38;60.97
63552;BME280;49698;48.072;7.800;2022-07-04T06:24:12;99676.91;;;20.40;60.94
63552;BME280;49698;48.072;7.800;2022-07-04T06:26:42;99678.84;;;20.39;60.99
63552;BME280;49698;48.072;7.800;2022-07-04T06:29:09;99689.66;;;20.36;61.09
63552;BME280;49698;48.072;7.800;2022-07-04T06:31:38;99695.47;;;20.34;61.33
63552;BME280;49698;48.072;7.800;2022-07-04T06:34:06;99697.03;;;20.35;61.36
63552;BME280;49698;48.072;7.800;2022-07-04T06:36:51;99697.84;;;20.36;61.25
63552;BME280;49698;48.072;7.800;2022-07-04T06:39:19;99696.25;;;20.35;61.33
63552;BME280;49698;48.072;7.800;2022-07-04T06:41:48;99702.88;;;20.34;61.50
63552;BME280;49698;48.072;7.800;2022-07-04T06:44:15;99709.00;;;20.31;61.80
63552;BME280;49698;48.072;7.800;2022-07-04T06:46:43;99715.59;;;20.30;61.72
63552;BME280;49698;48.072;7.800;2022-07-04T06:49:12;99717.31;;;20.34;61.62
63552;BME280;49698;48.072;7.800;2022-07-04T06:51:40;99700.81;;;20.43;61.35
63552;BME280;49698;48.072;7.800;2022-07-04T06:54:08;99694.03;;;20.49;61.11
63552;BME280;49698;48.072;7.800;2022-07-04T06:56:35;99692.88;;;20.50;61.16
63552;BME280;49698;48.072;7.800;2022-07-04T06:59:04;99699.66;;;20.44;61.17
63552;BME280;49698;48.072;7.800;2022-07-04T07:01:32;99715.59;;;20.42;61.25
63552;BME280;49698;48.072;7.800;2022-07-04T07:04:00;99720.28;;;20.41;61.38
63552;BME280;49698;48.072;7.800;2022-07-04T07:06:28;99716.41;;;20.42;61.40
63552;BME280;49698;48.072;7.800;2022-07-04T07:08:56;99725.97;;;20.48;61.22
63552;BME280;49698;48.072;7.800;2022-07-04T07:11:24;99725.53;;;20.59;61.07
63552;BME280;49698;48.072;7.800;2022-07-04T07:13:52;99741.59;;;20.72;60.76
63552;BME280;49698;48.072;7.800;2022-07-04T07:16:21;99737.25;;;20.84;60.35
63552;BME280;49698;48.072;7.800;2022-07-04T07:18:51;99736.75;;;20.94;60.01
63552;BME280;49698;48.072;7.800;2022-07-04T07:21:19;99736.19;;;21.00;60.09
63552;BME280;49698;48.072;7.800;2022-07-04T07:23:47;99728.09;;;21.04;60.10
63552;BME280;49698;48.072;7.800;2022-07-04T07:26:16;99722.16;;;21.02;60.17
63552;BME280;49698;48.072;7.800;2022-07-04T07:28:43;99738.94;;;21.00;60.29
63552;BME280;49698;48.072;7.800;2022-07-04T07:31:11;99733.09;;;21.02;60.28
63552;BME280;49698;48.072;7.800;2022-07-04T07:33:40;99732.09;;;21.07;60.44
63552;BME280;49698;48.072;7.800;2022-07-04T07:36:08;99731.94;;;21.15;60.25
63552;BME280;49698;48.072;7.800;2022-07-04T07:38:36;99728.66;;;21.22;60.25
63552;BME280;49698;48.072;7.800;2022-07-04T07:41:06;99723.59;;;21.24;60.10
63552;BME280;49698;48.072;7.800;2022-07-04T07:43:34;99725.19;;;21.25;60.24
63552;BME280;49698;48.072;7.800;2022-07-04T07:46:03;99717.59;;;21.18;60.20
63552;BME280;49698;48.072;7.800;2022-07-04T07:48:31;99725.81;;;21.18;60.27
63552;BME280;49698;48.072;7.800;2022-07-04T07:51:00;99723.41;;;21.17;60.23
63552;BME280;49698;48.072;7.800;2022-07-04T07:53:28;99715.75;;;21.22;60.34
63552;BME280;49698;48.072;7.800;2022-07-04T07:55:55;99722.75;;;21.48;59.71
63552;BME280;49698;48.072;7.800;2022-07-04T07:58:23;99718.78;;;21.73;58.94
63552;BME280;49698;48.072;7.800;2022-07-04T08:00:51;99710.88;;;22.00;58.49
63552;BME280;49698;48.072;7.800;2022-07-04T08:03:20;99700.50;;;22.21;57.84
63552;BME280;49698;48.072;7.800;2022-07-04T08:06:07;99689.28;;;22.42;57.03
63552;BME280;49698;48.072;7.800;2022-07-04T08:08:34;99694.28;;;22.56;56.64
63552;BME280;49698;48.072;7.800;2022-07-04T08:11:02;99681.34;;;22.73;56.41
63552;BME280;49698;48.072;7.800;2022-07-04T08:13:30;99674.03;;;22.96;55.74
63552;BME280;49698;48.072;7.800;2022-07-04T08:15:58;99678.41;;;23.16;55.26
63552;BME280;49698;48.072;7.800;2022-07-04T08:18:26;99676.84;;;23.35;55.03
63552;BME280;49698;48.072;7.800;2022-07-04T08:20:54;99665.31;;;23.49;54.92
63552;BME280;49698;48.072;7.800;2022-07-04T08:23:28;99658.03;;;23.56;54.79
63552;BME280;49698;48.072;7.800;2022-07-04T08:25:56;99669.56;;;23.65;54.46
63552;BME280;49698;48.072;7.800;2022-07-04T08:28:24;99655.81;;;23.65;54.31
63552;BME280;49698;48.072;7.800;2022-07-04T08:30:52;99661.63;;;23.80;53.97
63552;BME280;49698;48.072;7.800;2022-07-04T08:33:20;99651.69;;;23.95;53.51
63552;BME280;49698;48.072;7.800;2022-07-04T08:35:47;99648.63;;;24.00;53.44
63552;BME280;49698;48.072;7.800;2022-07-04T08:38:16;99646.25;;;23.98;53.33
63552;BME280;49698;48.072;7.800;2022-07-04T08:40:45;99644.16;;;23.91;53.29
63552;BME280;49698;48.072;7.800;2022-07-04T08:43:14;99645.94;;;24.03;53.05
63552;BME280;49698;48.072;7.800;2022-07-04T08:45:42;99647.88;;;24.03;52.98
63552;BME280;49698;48.072;7.800;2022-07-04T08:48:31;99653.13;;;24.11;52.41
63552;BME280;49698;48.072;7.800;2022-07-04T08:51:00;99658.13;;;24.29;52.18
63552;BME280;49698;48.072;7.800;2022-07-04T08:53:31;99654.81;;;24.43;51.52
63552;BME280;49698;48.072;7.800;2022-07-04T08:56:02;99652.63;;;24.52;51.55
63552;BME280;49698;48.072;7.800;2022-07-04T08:58:47;99656.66;;;24.61;51.21
63552;BME280;49698;48.072;7.800;2022-07-04T09:01:16;99670.13;;;24.67;51.25
63552;BME280;49698;48.072;7.800;2022-07-04T09:03:44;99663.56;;;24.75;51.00
63552;BME280;49698;48.072;7.800;2022-07-04T09:06:12;99651.47;;;24.83;51.09
63552;BME280;49698;48.072;7.800;2022-07-04T09:08:40;99667.78;;;24.99;50.82
63552;BME280;49698;48.072;7.800;2022-07-04T09:11:09;99670.72;;;25.09;50.41
63552;BME280;49698;48.072;7.800;2022-07-04T09:13:38;99668.13;;;25.24;50.11
63552;BME280;49698;48.072;7.800;2022-07-04T09:16:06;99667.03;;;25.32;49.72
63552;BME280;49698;48.072;7.800;2022-07-04T09:18:35;99662.00;;;25.37;49.94
63552;BME280;49698;48.072;7.800;2022-07-04T09:21:03;99658.53;;;25.44;49.56
63552;BME280;49698;48.072;7.800;2022-07-04T09:23:32;99657.81;;;25.51;49.45
63552;BME280;49698;48.072;7.800;2022-07-04T09:26:12;99660.19;;;25.52;49.51
63552;BME280;49698;48.072;7.800;2022-07-04T09:28:41;99650.03;;;25.56;49.59
63552;BME280;49698;48.072;7.800;2022-07-04T09:31:12;99650.06;;;25.60;49.19
63552;BME280;49698;48.072;7.800;2022-07-04T09:33:44;99652.25;;;25.47;49.13
63552;BME280;49698;48.072;7.800;2022-07-04T09:36:12;99644.22;;;25.31;49.28
63552;BME280;49698;48.072;7.800;2022-07-04T09:38:40;99649.25;;;25.22;49.20
63552;BME280;49698;48.072;7.800;2022-07-04T09:41:07;99644.44;;;25.16;49.24
63552;BME280;49698;48.072;7.800;2022-07-04T09:44:01;99645.78;;;25.29;49.26
63552;BME280;49698;48.072;7.800;2022-07-04T09:46:29;99657.19;;;25.31;48.65
63552;BME280;49698;48.072;7.800;2022-07-04T09:48:57;99667.84;;;25.32;48.53
63552;BME280;49698;48.072;7.800;2022-07-04T09:51:38;99661.63;;;25.39;48.36
63552;BME280;49698;48.072;7.800;2022-07-04T09:56:58;99665.06;;;25.29;48.36
63552;BME280;49698;48.072;7.800;2022-07-04T09:59:28;99665.25;;;25.13;48.61
63552;BME280;49698;48.072;7.800;2022-07-04T10:02:06;99657.38;;;25.11;48.86
63552;BME280;49698;48.072;7.800;2022-07-04T10:04:44;99653.63;;;25.27;48.60
63552;BME280;49698;48.072;7.800;2022-07-04T10:07:17;99652.13;;;25.33;48.67
63552;BME280;49698;48.072;7.800;2022-07-04T10:09:56;99652.69;;;25.49;48.80
63552;BME280;49698;48.072;7.800;2022-07-04T10:12:24;99658.28;;;25.56;48.39
63552;BME280;49698;48.072;7.800;2022-07-04T10:14:54;99650.41;;;25.58;48.14
63552;BME280;49698;48.072;7.800;2022-07-04T10:17:22;99647.00;;;25.69;48.15
63552;BME280;49698;48.072;7.800;2022-07-04T10:19:50;99647.16;;;25.83;47.84
63552;BME280;49698;48.072;7.800;2022-07-04T10:22:19;99643.69;;;25.93;47.43
63552;BME280;49698;48.072;7.800;2022-07-04T10:24:49;99633.88;;;25.92;47.36
63552;BME280;49698;48.072;7.800;2022-07-04T10:27:17;99630.72;;;25.94;47.50
63552;BME280;49698;48.072;7.800;2022-07-04T10:29:45;99640.16;;;25.93;47.53
63552;BME280;49698;48.072;7.800;2022-07-04T10:32:14;99642.50;;;25.91;47.29
63552;BME280;49698;48.072;7.800;2022-07-04T10:34:42;99646.47;;;25.97;47.42
63552;BME280;49698;48.072;7.800;2022-07-04T10:37:10;99652.81;;;26.01;47.26
63552;BME280;49698;48.072;7.800;2022-07-04T10:39:38;99655.19;;;26.02;47.16
63552;BME280;49698;48.072;7.800;2022-07-04T10:42:06;99642.66;;;26.08;46.97
63552;BME280;49698;48.072;7.800;2022-07-04T10:44:34;99646.69;;;26.22;46.78
63552;BME280;49698;48.072;7.800;2022-07-04T10:47:04;99652.25;;;26.25;46.52
63552;BME280;49698;48.072;7.800;2022-07-04T10:49:34;99641.66;;;26.34;46.40
63552;BME280;49698;48.072;7.800;2022-07-04T10:52:09;99638.97;;;26.42;46.35
63552;BME280;49698;48.072;7.800;2022-07-04T10:54:38;99642.91;;;26.44;46.11
63552;BME280;49698;48.072;7.800;2022-07-04T10:57:08;99642.16;;;26.47;46.10
63552;BME280;49698;48.072;7.800;2022-07-04T10:59:37;99636.69;;;26.51;46.04
63552;BME280;49698;48.072;7.800;2022-07-04T11:02:21;99642.63;;;26.60;45.97
63552;BME280;49698;48.072;7.800;2022-07-04T11:04:53;99640.66;;;26.57;45.61
63552;BME280;49698;48.072;7.800;2022-07-04T11:07:21;99633.56;;;26.56;45.76
63552;BME280;49698;48.072;7.800;2022-07-04T11:12:50;99628.16;;;26.77;45.54
63552;BME280;49698;48.072;7.800;2022-07-04T11:15:21;99625.88;;;26.97;44.99
63552;BME280;49698;48.072;7.800;2022-07-04T11:18:09;99623.22;;;27.12;44.42
63552;BME280;49698;48.072;7.800;2022-07-04T11:20:41;99616.47;;;27.09;44.20
63552;BME280;49698;48.072;7.800;2022-07-04T11:23:10;99623.91;;;26.94;44.48
63552;BME280;49698;48.072;7.800;2022-07-04T11:25:39;99616.72;;;26.75;44.86
63552;BME280;49698;48.072;7.800;2022-07-04T11:28:16;99613.16;;;26.64;45.03
63552;BME280;49698;48.072;7.800;2022-07-04T11:30:58;99602.84;;;26.54;44.92
63552;BME280;49698;48.072;7.800;2022-07-04T11:33:27;99608.41;;;26.61;44.66
63552;BME280;49698;48.072;7.800;2022-07-04T11:36:04;99608.44;;;26.68;44.32
63552;BME280;49698;48.072;7.800;2022-07-04T11:38:45;99608.50;;;26.90;43.89
63552;BME280;49698;48.072;7.800;2022-07-04T11:41:13;99609.78;;;27.10;43.07
63552;BME280;49698;48.072;7.800;2022-07-04T11:44:01;99604.25;;;27.10;42.71
63552;BME280;49698;48.072;7.800;2022-07-04T11:46:47;99608.66;;;27.25;42.54
63552;BME280;49698;48.072;7.800;2022-07-04T11:49:15;99605.16;;;27.43;42.10
63552;BME280;49698;48.072;7.800;2022-07-04T11:51:45;99611.09;;;27.38;42.22
63552;BME280;49698;48.072;7.800;2022-07-04T11:54:13;99603.94;;;27.19;42.32
63552;BME280;49698;48.072;7.800;2022-07-04T11:57:08;99592.81;;;27.01;42.74
63552;BME280;49698;48.072;7.800;2022-07-04T11:59:36;99596.31;;;26.98;42.96
63552;BME280;49698;48.072;7.800;2022-07-04T12:02:14;99593.59;;;27.01;43.09
63552;BME280;49698;48.072;7.800;2022-07-04T12:04:43;99603.44;;;27.02;42.82
63552;BME280;49698;48.072;7.800;2022-07-04T12:07:13;99603.81;;;26.94;43.04
63552;BME280;49698;48.072;7.800;2022-07-04T12:09:41;99600.22;;;26.86;43.22
63552;BME280;49698;48.072;7.800;2022-07-04T12:12:09;99599.81;;;26.77;43.51
63552;BME280;49698;48.072;7.800;2022-07-04T12:14:37;99599.38;;;26.71;43.65
63552;BME280;49698;48.072;7.800;2022-07-04T12:17:12;99602.09;;;26.68;43.96
63552;BME280;49698;48.072;7.800;2022-07-04T12:19:50;99602.09;;;26.61;44.13
63552;BME280;49698;48.072;7.800;2022-07-04T12:22:30;99594.06;;;26.41;44.30
63552;BME280;49698;48.072;7.800;2022-07-04T12:24:58;99595.56;;;26.28;44.60
63552;BME280;49698;48.072;7.800;2022-07-04T12:27:27;99585.31;;;26.28;44.65
63552;BME280;49698;48.072;7.800;2022-07-04T12:29:56;99580.22;;;26.27;44.85
63552;BME280;49698;48.072;7.800;2022-07-04T12:35:07;99566.16;;;26.46;44.76
63552;BME280;49698;48.072;7.800;2022-07-04T12:37:38;99556.41;;;26.63;44.69
63552;BME280;49698;48.072;7.800;2022-07-04T12:40:06;99557.63;;;26.73;44.37
63552;BME280;49698;48.072;7.800;2022-07-04T12:42:34;99541.47;;;26.75;44.05
63552;BME280;49698;48.072;7.800;2022-07-04T12:45:04;99532.03;;;26.76;44.31
63552;BME280;49698;48.072;7.800;2022-07-04T12:47:32;99540.72;;;26.78;44.35
63552;BME280;49698;48.072;7.800;2022-07-04T12:50:08;99533.59;;;26.70;44.20
63552;BME280;49698;48.072;7.800;2022-07-04T12:52:35;99526.44;;;26.54;44.38
63552;BME280;49698;48.072;7.800;2022-07-04T12:55:08;99529.47;;;26.39;45.00
63552;BME280;49698;48.072;7.800;2022-07-04T12:57:37;99532.94;;;26.18;45.22
63552;BME280;49698;48.072;7.800;2022-07-04T13:00:05;99536.00;;;26.09;45.53
63552;BME280;49698;48.072;7.800;2022-07-04T13:02:53;99540.31;;;26.03;45.51
63552;BME280;49698;48.072;7.800;2022-07-04T13:05:21;99533.59;;;26.00;45.50
63552;BME280;49698;48.072;7.800;2022-07-04T13:07:49;99540.28;;;25.99;45.61
63552;BME280;49698;48.072;7.800;2022-07-04T13:10:18;99535.13;;;25.98;45.63
63552;BME280;49698;48.072;7.800;2022-07-04T13:12:46;99540.28;;;25.99;45.71
63552;BME280;49698;48.072;7.800;2022-07-04T13:15:13;99528.91;;;26.08;45.56
63552;BME280;49698;48.072;7.800;2022-07-04T13:17:41;99537.31;;;26.26;45.32
63552;BME280;49698;48.072;7.800;2022-07-04T13:20:09;99534.59;;;26.40;45.14